History for KNYNEWYO343

Midtown West, New York, NY — Current Conditions
Daily Summary for August 22, 2018
  Current: High: Low: Average:
Temperature: 73.8°F 74.3°F 73.0°F 73.7°F
Dew Point: 73.2°F 73.2°F 71.1°F 72.0°F
Humidity: 98% 98% 91% 95%
Wind Speed: 0.0mph 1.1mph - 0.0mph
Wind Gust: 0.0mph 2.5mph - -
Wind: ESE - - South
Pressure: 29.71in 29.84in 29.70in -
Precipitation: 0.90in      
Solar Radiation: 0 watts/m^2      
UV Index: 0.0      
Statistics for the rest of the month
    High: Low: Average:
Temperature:   94.1°F 68.5°F 80.3°F
Dew Point:   80.8°F 59.9°F 70.5°F
Humidity:   98.0% 38.0% 75.0%
Wind Speed:   6.7mph from the NW - 0.0mph
Wind Gust:   9.8mph from the NW - -
Wind:   - - SSW
Pressure:   30.15in 29.70in -
Precipitation:   7.91in    
KNYNEWYO343 Weather Graph
Tabular Data for August 22, 2018
Time Temp. Dew Point Pressure Wind Gust Humidity Rainfall Solar Radiation
00:04 74.3°F 72.1°F 29.83in 0mph 93% 0in 0.00 watts/m^2
00:09 73.9°F 71.2°F 29.83in 0mph 91% 0.07in 0.00 watts/m^2
00:14 73.8°F 71.4°F 29.83in 0mph 92% 0.07in 0.00 watts/m^2
00:19 73.4°F 71.6°F 29.83in 0mph 94% 0in 0.00 watts/m^2
00:24 73.4°F 72°F 29.83in 0mph 95% 0in 0.00 watts/m^2
00:29 73.4°F 71.1°F 29.81in 0mph 92% 0.07in 0.00 watts/m^2
00:34 73.2°F 71.1°F 29.81in 0mph 93% 0.14in 0.00 watts/m^2
00:39 73.2°F 71.1°F 29.81in 0mph 93% 0.07in 0.00 watts/m^2
00:44 73.2°F 71.8°F 29.81in 0mph 95% 0.07in 0.00 watts/m^2
00:49 73.2°F 71.1°F 29.80in 0mph 93% 0.07in 0.00 watts/m^2
00:54 73.2°F 71.1°F 29.79in 0mph 93% 0in 0.00 watts/m^2
00:59 73.2°F 71.1°F 29.79in 0mph 93% 0.07in 0.00 watts/m^2
01:04 73.2°F 71.8°F 29.79in 0mph 95% 0.07in 0.00 watts/m^2
01:09 73.4°F 71.2°F 29.78in 0mph 93% 0in 0.00 watts/m^2
01:14 73.2°F 71.1°F 29.78in 0mph 93% 0.07in 0.00 watts/m^2
01:19 73.2°F 71.1°F 29.78in 0mph 93% 0.57in 0.00 watts/m^2
01:24 73.4°F 71.6°F 29.79in 0mph 94% 0.78in 0.00 watts/m^2
01:29 73.4°F 72.3°F 29.78in 0mph 96% 1.63in 0.00 watts/m^2
01:34 73.2°F 71.8°F 29.79in 0mph 95% 2.06in 0.00 watts/m^2
01:39 73.2°F 71.8°F 29.78in 0mph 95% 1.06in 0.00 watts/m^2
01:44 73°F 71.6°F 29.78in 0mph 95% 0.71in 0.00 watts/m^2
01:49 73°F 72.1°F 29.75in 0mph 97% 0.99in 0.00 watts/m^2
01:54 73.2°F 72.1°F 29.75in 0mph 96% 1.06in 0.00 watts/m^2
01:59 73.2°F 72.1°F 29.73in 0mph 96% 0.5in 0.00 watts/m^2
02:04 73.2°F 72.1°F 29.72in 0mph 96% 0.14in 0.00 watts/m^2
02:09 73.2°F 72.7°F 29.72in 0mph 98% 0.07in 0.00 watts/m^2
02:14 73.2°F 72.7°F 29.72in 0mph 98% 0.07in 0.00 watts/m^2
02:19 73.2°F 72.7°F 29.71in 0mph 98% 0in 0.00 watts/m^2
02:24 73.2°F 72.7°F 29.72in 0mph 98% 0in 0.00 watts/m^2
02:29 73.4°F 72.9°F 29.71in 0mph 98% 0in 0.00 watts/m^2
02:34 73.4°F 72.9°F 29.72in 0mph 98% 0in 0.00 watts/m^2
02:39 73.6°F 73°F 29.72in 0mph 98% 0in 0.00 watts/m^2
02:44 73.6°F 73°F 29.72in 0mph 98% 0in 0.00 watts/m^2
02:49 73.6°F 73°F 29.71in 0mph 98% 0in 0.00 watts/m^2
02:54 73.6°F 73°F 29.71in 0mph 98% 0in 0.00 watts/m^2
02:59 73.8°F 73.2°F 29.71in 0mph 98% 0in 0.00 watts/m^2
Comma Delimited File
Powered by Weather Underground, Inc.